createdAt,value
2019-01-12T00:00:40.723Z,8.70
2019-01-12T00:01:40.716Z,8.80
2019-01-12T00:02:40.729Z,9.00
2019-01-12T00:03:40.714Z,8.80
2019-01-12T00:04:40.682Z,8.50
2019-01-12T00:05:40.675Z,9.00
2019-01-12T00:06:40.696Z,8.60
2019-01-12T00:07:40.648Z,8.00
2019-01-12T00:08:40.678Z,8.30
2019-01-12T00:09:40.629Z,8.70
2019-01-12T00:10:40.615Z,8.70
2019-01-12T00:11:40.623Z,8.30
2019-01-12T00:12:40.592Z,8.70
2019-01-12T00:13:40.608Z,8.00
2019-01-12T00:14:40.590Z,8.30
2019-01-12T00:15:40.562Z,8.20
2019-01-12T00:16:40.558Z,8.60
2019-01-12T00:17:40.544Z,8.70
2019-01-12T00:18:40.576Z,7.80
2019-01-12T00:19:40.524Z,7.90
2019-01-12T00:20:40.517Z,8.00
2019-01-12T00:21:40.529Z,8.60
2019-01-12T00:22:40.491Z,8.50
2019-01-12T00:23:40.485Z,8.40
2019-01-12T00:24:40.495Z,7.70
2019-01-12T00:25:40.457Z,7.70
2019-01-12T00:26:40.444Z,8.40
2019-01-12T00:27:40.499Z,8.20
2019-01-12T00:28:40.423Z,7.80
2019-01-12T00:29:40.438Z,8.20
2019-01-12T00:30:40.412Z,7.30
2019-01-12T00:31:40.392Z,8.10
2019-01-12T00:32:40.388Z,7.20
2019-01-12T00:33:40.371Z,7.70
2019-01-12T00:34:40.540Z,8.10
2019-01-12T00:35:40.348Z,7.50
2019-01-12T00:36:40.352Z,7.30
2019-01-12T00:37:40.329Z,7.00
2019-01-12T00:38:40.321Z,7.30
2019-01-12T00:39:40.334Z,7.40
2019-01-12T00:40:40.359Z,7.10
2019-01-12T00:41:40.294Z,7.10
2019-01-12T00:42:40.278Z,7.50
2019-01-12T00:43:40.265Z,7.10
2019-01-12T00:44:40.254Z,6.90
2019-01-12T00:45:40.282Z,6.80
2019-01-12T00:46:40.270Z,6.70
2019-01-12T00:47:40.223Z,6.70
2019-01-12T00:48:40.210Z,7.00
2019-01-12T00:49:40.207Z,6.60
2019-01-12T00:50:40.203Z,6.60
2019-01-12T00:51:40.204Z,6.70
2019-01-12T00:52:40.169Z,6.60
2019-01-12T00:53:40.204Z,6.80
2019-01-12T00:54:40.146Z,6.90
2019-01-12T00:55:40.135Z,6.80
2019-01-12T00:56:40.150Z,6.40
2019-01-12T00:57:40.147Z,6.60
2019-01-12T00:58:40.105Z,6.30
2019-01-12T00:59:40.117Z,6.20
2019-01-12T01:00:40.086Z,6.30
2019-01-12T01:01:40.122Z,6.10
2019-01-12T01:02:40.145Z,6.20
2019-01-12T01:03:40.051Z,6.30
2019-01-12T01:04:40.065Z,6.50
2019-01-12T01:05:40.029Z,6.40
2019-01-12T01:06:40.018Z,6.20
2019-01-12T01:07:40.049Z,5.30
2019-01-12T01:08:39.997Z,5.40
2019-01-12T01:09:39.987Z,5.90
2019-01-12T01:10:39.984Z,4.90
2019-01-12T01:11:39.964Z,5.60
2019-01-12T01:12:40.003Z,5.30
2019-01-12T01:13:39.981Z,5.70
2019-01-12T01:14:39.938Z,5.60
2019-01-12T01:15:39.923Z,5.00
2019-01-12T01:16:39.912Z,5.60
2019-01-12T01:17:39.902Z,5.30
2019-01-12T01:18:39.912Z,5.70
2019-01-12T01:19:39.950Z,5.30
2019-01-12T01:20:39.886Z,5.50
2019-01-12T01:21:39.858Z,5.50
2019-01-12T01:22:39.850Z,5.70
2019-01-12T01:23:39.863Z,5.40
2019-01-12T01:24:45.785Z,5.70
2019-01-12T01:25:40.820Z,5.30
2019-01-12T01:26:39.893Z,5.20
2019-01-12T01:27:39.794Z,5.60
2019-01-12T01:28:39.816Z,5.70
2019-01-12T01:29:39.789Z,5.60
2019-01-12T01:30:39.790Z,5.60
2019-01-12T01:31:39.883Z,5.70
2019-01-12T01:32:39.739Z,6.00
2019-01-12T01:33:39.738Z,5.30
2019-01-12T01:34:39.761Z,6.10
2019-01-12T01:35:39.734Z,6.50
2019-01-12T01:36:39.699Z,6.90
2019-01-12T01:37:39.685Z,6.70
2019-01-12T01:38:39.724Z,6.60
2019-01-12T01:39:39.702Z,6.80
2019-01-12T01:40:39.669Z,6.90
2019-01-12T01:41:39.644Z,6.90
2019-01-12T01:42:39.638Z,6.90
2019-01-12T01:43:39.658Z,6.60
2019-01-12T01:44:39.613Z,7.20
2019-01-12T01:45:39.629Z,6.30
2019-01-12T01:46:39.599Z,6.90
2019-01-12T01:47:39.596Z,6.90
2019-01-12T01:48:39.570Z,7.30
2019-01-12T01:49:39.563Z,7.00
2019-01-12T01:50:39.621Z,6.90
2019-01-12T01:51:39.537Z,7.20
2019-01-12T01:52:39.526Z,7.70
2019-01-12T01:53:39.514Z,6.30
2019-01-12T01:54:39.509Z,7.10
2019-01-12T01:55:39.517Z,7.00
2019-01-12T01:56:39.504Z,6.70
2019-01-12T01:57:39.473Z,6.50
2019-01-12T01:58:39.462Z,6.10
2019-01-12T01:59:39.452Z,6.70
2019-01-12T02:00:39.463Z,6.50
2019-01-12T02:01:39.433Z,6.30
2019-01-12T02:02:39.457Z,6.20
2019-01-12T02:03:39.410Z,6.90
2019-01-12T02:04:39.404Z,6.80
2019-01-12T02:05:39.484Z,6.60
2019-01-12T02:06:39.377Z,6.70
2019-01-12T02:07:39.365Z,6.30
2019-01-12T02:08:39.377Z,6.60
2019-01-12T02:09:39.347Z,6.40
2019-01-12T02:10:39.358Z,6.30
2019-01-12T02:11:39.329Z,6.10
2019-01-12T02:12:39.318Z,6.50
2019-01-12T02:13:39.328Z,6.30
2019-01-12T02:14:39.291Z,6.10
2019-01-12T02:15:39.313Z,6.30
2019-01-12T02:16:39.311Z,6.80
2019-01-12T02:17:39.270Z,7.00
2019-01-12T02:18:39.252Z,6.70
2019-01-12T02:19:39.238Z,6.80
2019-01-12T02:20:39.257Z,6.60
2019-01-12T02:21:39.215Z,6.90
2019-01-12T02:22:39.301Z,6.30
2019-01-12T02:23:39.206Z,6.20
2019-01-12T02:24:39.194Z,6.40
2019-01-12T02:25:39.177Z,6.50
2019-01-12T02:26:39.214Z,6.70
2019-01-12T02:27:39.161Z,7.00
2019-01-12T02:28:39.140Z,6.70
2019-01-12T02:29:39.177Z,7.00
2019-01-12T02:30:39.128Z,6.50
2019-01-12T02:31:39.144Z,6.90
2019-01-12T02:32:39.101Z,6.80
2019-01-12T02:33:39.102Z,6.60
2019-01-12T02:34:39.078Z,6.20
2019-01-12T02:35:39.082Z,6.40
2019-01-12T02:36:39.084Z,6.60
2019-01-12T02:37:39.048Z,6.30
2019-01-12T02:38:39.042Z,6.50
2019-01-12T02:39:39.033Z,6.50
2019-01-12T02:40:39.015Z,6.30
2019-01-12T02:41:39.035Z,6.50
2019-01-12T02:42:39.056Z,6.70
2019-01-12T02:43:38.982Z,6.20
2019-01-12T02:44:38.971Z,6.60
2019-01-12T02:45:38.964Z,6.40
2019-01-12T02:46:38.950Z,5.90
2019-01-12T02:47:38.967Z,6.90
2019-01-12T02:48:38.929Z,6.40
2019-01-12T02:49:38.923Z,6.50
2019-01-12T02:50:39.230Z,6.40
2019-01-12T02:51:38.902Z,6.80
2019-01-12T02:52:38.966Z,6.70
2019-01-12T02:53:38.880Z,6.80
2019-01-12T02:54:38.879Z,6.60
2019-01-12T02:55:38.869Z,7.10
2019-01-12T02:56:38.882Z,7.00
2019-01-12T02:57:38.883Z,6.90
2019-01-12T02:58:38.824Z,7.70
2019-01-12T02:59:38.816Z,6.90
2019-01-12T03:00:38.801Z,7.60
2019-01-12T03:01:38.792Z,6.70
2019-01-12T03:02:38.822Z,6.90
2019-01-12T03:03:38.766Z,6.80
2019-01-12T03:04:38.756Z,7.20
2019-01-12T03:05:38.751Z,7.40
2019-01-12T03:06:38.736Z,7.00
2019-01-12T03:07:38.763Z,7.20
2019-01-12T03:08:38.759Z,6.80
2019-01-12T03:09:38.705Z,7.60
2019-01-12T03:10:38.694Z,7.00
2019-01-12T03:11:38.684Z,6.70
2019-01-12T03:12:38.699Z,7.50
2019-01-12T03:13:38.670Z,7.60
2019-01-12T03:14:38.675Z,7.50
2019-01-12T03:15:38.639Z,7.90
2019-01-12T03:16:38.653Z,7.60
2019-01-12T03:17:38.651Z,7.90
2019-01-12T03:18:38.609Z,8.00
2019-01-12T03:19:38.599Z,8.20
2019-01-12T03:20:38.585Z,8.60
2019-01-12T03:21:38.574Z,8.00
2019-01-12T03:22:38.609Z,8.00
2019-01-12T03:23:38.553Z,8.20
2019-01-12T03:24:38.547Z,8.90
2019-01-12T03:25:38.537Z,8.30
2019-01-12T03:26:38.537Z,7.80
2019-01-12T03:27:38.545Z,7.80
2019-01-12T03:28:38.537Z,8.30
2019-01-12T03:29:38.488Z,8.10
2019-01-12T03:30:38.500Z,8.30
2019-01-12T03:31:38.472Z,8.40
2019-01-12T03:32:38.480Z,8.10
2019-01-12T03:33:38.569Z,8.60
2019-01-12T03:34:38.443Z,8.40
2019-01-12T03:35:38.434Z,8.20
2019-01-12T03:36:38.473Z,8.10
2019-01-12T03:37:38.419Z,8.20
2019-01-12T03:38:38.433Z,8.50
2019-01-12T03:39:38.390Z,8.50
2019-01-12T03:40:38.374Z,8.90
2019-01-12T03:41:38.370Z,8.60
2019-01-12T03:42:38.374Z,8.70
2019-01-12T03:43:38.374Z,8.70
2019-01-12T03:44:38.329Z,8.60
2019-01-12T03:45:38.318Z,8.60
2019-01-12T03:46:38.315Z,8.40
2019-01-12T03:47:38.301Z,8.70
2019-01-12T03:48:38.301Z,8.50
2019-01-12T03:49:38.325Z,9.00
2019-01-12T03:50:38.288Z,8.60
2019-01-12T03:51:38.257Z,8.40
2019-01-12T03:52:38.244Z,8.40
2019-01-12T03:53:38.235Z,8.60
2019-01-12T03:54:38.245Z,8.30
2019-01-12T03:55:38.244Z,8.10
2019-01-12T03:56:38.202Z,8.10
2019-01-12T03:57:38.191Z,8.00
2019-01-12T03:58:38.189Z,7.90
2019-01-12T03:59:38.208Z,7.30
2019-01-12T04:00:38.161Z,8.40
2019-01-12T04:01:38.175Z,7.70
2019-01-12T04:02:38.138Z,7.90
2019-01-12T04:03:38.126Z,7.70
2019-01-12T04:04:38.117Z,7.80
2019-01-12T04:05:38.130Z,7.70
2019-01-12T04:06:38.099Z,7.50
2019-01-12T04:07:38.114Z,7.80
2019-01-12T04:08:38.089Z,7.40
2019-01-12T04:09:38.072Z,7.70
2019-01-12T04:10:38.077Z,7.70
2019-01-12T04:11:38.046Z,8.00
2019-01-12T04:12:38.033Z,7.70
2019-01-12T04:13:38.024Z,8.10
2019-01-12T04:14:38.057Z,8.00
2019-01-12T04:15:38.027Z,8.20
2019-01-12T04:16:37.994Z,7.80
2019-01-12T04:17:37.978Z,7.20
2019-01-12T04:18:37.970Z,7.70
2019-01-12T04:19:37.956Z,7.90
2019-01-12T04:20:37.982Z,7.50
2019-01-12T04:21:37.994Z,7.80
2019-01-12T04:22:37.927Z,7.90
2019-01-12T04:23:37.915Z,7.90
2019-01-12T04:24:37.911Z,7.40
2019-01-12T04:25:37.926Z,7.10
2019-01-12T04:26:37.880Z,7.60
2019-01-12T04:27:37.875Z,7.30
2019-01-12T04:28:37.872Z,7.70
2019-01-12T04:29:37.879Z,7.30
2019-01-12T04:30:37.845Z,7.70
2019-01-12T04:31:37.892Z,8.30
2019-01-12T04:32:37.815Z,8.00
2019-01-12T04:33:37.814Z,8.10
2019-01-12T04:34:37.847Z,8.20
2019-01-12T04:35:37.783Z,7.70
2019-01-12T04:36:37.803Z,7.90
2019-01-12T04:37:37.769Z,7.40
2019-01-12T04:38:37.753Z,7.60
2019-01-12T04:39:37.802Z,8.20
2019-01-12T04:40:37.739Z,8.10
2019-01-12T04:41:37.765Z,8.20
2019-01-12T04:42:37.710Z,8.20
2019-01-12T04:43:37.703Z,7.70
2019-01-12T04:44:37.688Z,8.20
2019-01-12T04:45:37.709Z,8.70
2019-01-12T04:46:37.665Z,8.50
2019-01-12T04:47:37.683Z,8.60
2019-01-12T04:48:37.651Z,8.10
2019-01-12T04:49:37.636Z,8.50
2019-01-12T04:50:37.631Z,8.20
2019-01-12T04:51:37.627Z,8.60
2019-01-12T04:52:37.714Z,8.00
2019-01-12T04:53:37.607Z,8.30
2019-01-12T04:54:37.583Z,8.60
2019-01-12T04:55:41.516Z,8.40
2019-01-12T04:56:37.566Z,7.80
2019-01-12T04:57:37.594Z,8.10
2019-01-12T04:58:37.594Z,9.00
2019-01-12T04:59:37.537Z,7.90
2019-01-12T05:00:37.532Z,7.90
2019-01-12T05:01:37.509Z,7.70
2019-01-12T05:02:37.506Z,7.50
2019-01-12T05:03:37.521Z,7.70
2019-01-12T05:04:37.514Z,7.90
2019-01-12T05:05:37.478Z,7.40
2019-01-12T05:06:37.457Z,8.00
2019-01-12T05:07:37.452Z,8.20
2019-01-12T05:08:37.461Z,8.00
2019-01-12T05:09:37.422Z,7.80
2019-01-12T05:10:37.459Z,7.40
2019-01-12T05:11:37.403Z,7.80
2019-01-12T05:12:37.398Z,8.30
2019-01-12T05:13:37.417Z,7.80
2019-01-12T05:14:37.375Z,7.80
2019-01-12T05:15:37.362Z,7.70
2019-01-12T05:16:37.352Z,7.40
2019-01-12T05:17:37.339Z,7.40
2019-01-12T05:18:37.331Z,7.40
2019-01-12T05:19:37.370Z,7.10
2019-01-12T05:20:37.310Z,6.70
2019-01-12T05:21:37.297Z,6.70
2019-01-12T05:22:37.285Z,6.90
2019-01-12T05:23:37.283Z,7.00
2019-01-12T05:24:37.287Z,6.90
2019-01-12T05:25:37.286Z,6.90
2019-01-12T05:26:37.251Z,7.20
2019-01-12T05:27:37.247Z,6.40
2019-01-12T05:28:37.230Z,6.80
2019-01-12T05:29:37.262Z,6.10
2019-01-12T05:30:37.199Z,6.80
2019-01-12T05:31:37.194Z,7.30
2019-01-12T05:32:37.275Z,6.50
2019-01-12T05:33:37.170Z,6.90
2019-01-12T05:34:37.154Z,7.20
2019-01-12T05:35:37.176Z,6.90
2019-01-12T05:36:37.133Z,7.30
2019-01-12T05:37:37.122Z,6.90
2019-01-12T05:38:37.125Z,7.20
2019-01-12T05:39:37.114Z,7.20
2019-01-12T05:40:37.127Z,7.20
2019-01-12T05:41:37.083Z,6.90
2019-01-12T05:42:37.104Z,6.80
2019-01-12T05:43:37.057Z,7.00
2019-01-12T05:44:37.058Z,6.90
2019-01-12T05:45:37.045Z,7.50
2019-01-12T05:46:37.094Z,7.30
2019-01-12T05:47:37.036Z,6.50
2019-01-12T05:48:37.019Z,6.90
2019-01-12T05:49:36.992Z,7.00
2019-01-12T05:50:36.999Z,7.30
2019-01-12T05:51:37.001Z,6.80
2019-01-12T05:52:36.978Z,6.60
2019-01-12T05:53:36.953Z,6.80
2019-01-12T05:54:36.943Z,7.30
2019-01-12T05:55:36.934Z,6.60
2019-01-12T05:56:36.950Z,7.20
2019-01-12T05:57:36.909Z,6.70
2019-01-12T05:58:36.963Z,7.20
2019-01-12T05:59:36.894Z,8.10
2019-01-12T06:00:36.880Z,7.60
2019-01-12T06:01:36.896Z,7.60
2019-01-12T06:02:36.855Z,7.10
2019-01-12T06:03:36.847Z,7.30
2019-01-12T06:04:36.888Z,7.80
2019-01-12T06:05:36.866Z,7.60
2019-01-12T06:06:36.844Z,7.70
2019-01-12T06:07:36.802Z,7.50
2019-01-12T06:08:36.798Z,7.40
2019-01-12T06:09:36.782Z,7.10
2019-01-12T06:10:36.835Z,7.80
2019-01-12T06:11:36.791Z,7.70
2019-01-12T06:12:36.785Z,7.60
2019-01-12T06:13:36.744Z,7.10
2019-01-12T06:14:36.739Z,7.50
2019-01-12T06:15:36.742Z,7.90
2019-01-12T06:16:36.713Z,7.80
2019-01-12T06:17:36.724Z,7.30
2019-01-12T06:18:36.712Z,7.60
2019-01-12T06:19:36.681Z,7.60
2019-01-12T06:20:36.688Z,7.60
2019-01-12T06:21:36.654Z,7.10
2019-01-12T06:22:36.671Z,7.10
2019-01-12T06:23:36.632Z,7.60
2019-01-12T06:24:36.688Z,7.10
2019-01-12T06:25:36.626Z,6.80
2019-01-12T06:26:36.609Z,7.00
2019-01-12T06:27:36.674Z,7.20
2019-01-12T06:28:36.581Z,7.00
2019-01-12T06:29:36.575Z,6.80
2019-01-12T06:30:36.566Z,7.30
2019-01-12T06:31:36.600Z,7.10
2019-01-12T06:32:36.577Z,7.30
2019-01-12T06:33:36.682Z,6.80
2019-01-12T06:34:36.568Z,6.90
2019-01-12T06:35:36.506Z,7.50
2019-01-12T06:36:36.511Z,6.50
2019-01-12T06:37:36.486Z,6.80
2019-01-12T06:38:36.508Z,6.50
2019-01-12T06:39:36.510Z,7.50
2019-01-12T06:40:36.457Z,6.30
2019-01-12T06:41:36.444Z,6.70
2019-01-12T06:42:36.485Z,6.60
2019-01-12T06:43:36.442Z,6.40
2019-01-12T06:44:36.427Z,6.90
2019-01-12T06:45:36.406Z,6.40
2019-01-12T06:46:36.387Z,6.00
2019-01-12T06:47:36.396Z,5.90
2019-01-12T06:48:36.509Z,6.50
2019-01-12T06:49:36.367Z,6.10
2019-01-12T06:50:36.346Z,6.10
2019-01-12T06:51:36.335Z,5.90
2019-01-12T06:52:36.365Z,6.10
2019-01-12T06:53:36.321Z,5.20
2019-01-12T06:54:36.333Z,5.90
2019-01-12T06:55:36.308Z,5.60
2019-01-12T06:56:36.284Z,5.30
2019-01-12T06:57:36.270Z,5.70
2019-01-12T06:58:36.281Z,5.40
2019-01-12T06:59:36.333Z,5.70
2019-01-12T07:00:36.294Z,4.70
2019-01-12T07:01:36.229Z,5.10
2019-01-12T07:02:36.295Z,5.50
2019-01-12T07:03:36.308Z,5.30
2019-01-12T07:04:36.267Z,5.30
2019-01-12T07:05:36.187Z,5.00
2019-01-12T07:06:36.490Z,4.70
2019-01-12T07:07:36.313Z,4.70
2019-01-12T07:08:36.196Z,4.60
2019-01-12T07:09:36.144Z,4.50
2019-01-12T07:10:36.189Z,3.70
2019-01-12T07:11:36.123Z,4.30
2019-01-12T07:12:36.282Z,3.90
2019-01-12T07:13:36.114Z,4.00
2019-01-12T07:14:36.090Z,4.20
2019-01-12T07:15:36.137Z,4.10
2019-01-12T07:16:36.067Z,4.10
2019-01-12T07:17:36.081Z,4.10
2019-01-12T07:18:36.053Z,4.30
2019-01-12T07:19:36.461Z,4.60
2019-01-12T07:20:36.118Z,4.40
2019-01-12T07:21:36.047Z,4.50
2019-01-12T07:22:36.116Z,4.60
2019-01-12T07:23:35.997Z,4.80
2019-01-12T07:24:35.993Z,4.90
2019-01-12T07:25:35.981Z,4.70
2019-01-12T07:26:36.142Z,4.20
2019-01-12T07:27:35.952Z,4.70
2019-01-12T07:28:35.945Z,4.60
2019-01-12T07:29:35.943Z,4.80
2019-01-12T07:30:36.225Z,4.90
2019-01-12T07:31:36.043Z,4.80
2019-01-12T07:32:36.081Z,5.30
2019-01-12T07:33:35.898Z,4.90
2019-01-12T07:34:35.878Z,4.90
2019-01-12T07:35:35.870Z,4.80
2019-01-12T07:36:35.989Z,5.30
2019-01-12T07:37:35.850Z,5.20
2019-01-12T07:38:35.896Z,5.10
2019-01-12T07:39:35.822Z,5.40
2019-01-12T07:40:35.989Z,5.40
2019-01-12T07:41:35.975Z,5.70
2019-01-12T07:42:35.793Z,5.60
2019-01-12T07:43:35.791Z,5.20
2019-01-12T07:44:35.826Z,5.30
2019-01-12T07:45:35.762Z,5.40
2019-01-12T07:46:35.753Z,5.60
2019-01-12T07:47:35.785Z,5.50
2019-01-12T07:48:35.759Z,5.50
2019-01-12T07:49:35.736Z,6.10
2019-01-12T07:50:35.723Z,5.50
2019-01-12T07:51:35.712Z,5.50
2019-01-12T07:52:35.784Z,5.50
2019-01-12T07:53:35.764Z,5.90
2019-01-12T07:54:35.763Z,5.50
2019-01-12T07:55:35.789Z,5.90
2019-01-12T07:56:35.647Z,6.00
2019-01-12T07:57:35.701Z,6.00
2019-01-12T07:58:35.621Z,6.20
2019-01-12T07:59:35.612Z,5.90
2019-01-12T08:00:35.666Z,5.40
2019-01-12T08:01:35.625Z,6.10
2019-01-12T08:02:35.583Z,5.70
2019-01-12T08:03:35.681Z,6.40
2019-01-12T08:04:35.570Z,6.10
2019-01-12T08:05:35.619Z,5.90
2019-01-12T08:06:35.549Z,6.20
2019-01-12T08:07:35.551Z,6.60
2019-01-12T08:08:35.598Z,6.20
2019-01-12T08:09:35.526Z,6.10
2019-01-12T08:10:35.508Z,6.30
2019-01-12T08:11:35.498Z,6.10
2019-01-12T08:12:35.481Z,6.40
2019-01-12T08:13:35.573Z,6.20
2019-01-12T08:14:35.534Z,6.10
2019-01-12T08:15:35.503Z,6.80
2019-01-12T08:16:35.495Z,6.60
2019-01-12T08:17:35.447Z,6.50
2019-01-12T08:18:35.463Z,6.40
2019-01-12T08:19:35.407Z,7.00
2019-01-12T08:20:35.404Z,6.90
2019-01-12T08:21:35.380Z,7.00
2019-01-12T08:22:35.388Z,6.40
2019-01-12T08:23:35.361Z,7.40
2019-01-12T08:24:35.374Z,7.20
2019-01-12T08:25:35.343Z,6.80
2019-01-12T08:26:35.424Z,6.40
2019-01-12T08:27:35.367Z,7.00
2019-01-12T08:28:35.332Z,7.50
2019-01-12T08:29:35.356Z,6.60
2019-01-12T08:30:35.442Z,7.00
2019-01-12T08:31:35.421Z,7.30
2019-01-12T08:32:35.293Z,7.10
2019-01-12T08:33:35.350Z,7.20
2019-01-12T08:34:35.289Z,7.10
2019-01-12T08:35:35.239Z,7.60
2019-01-12T08:36:35.232Z,7.10
2019-01-12T08:37:35.228Z,7.30
2019-01-12T08:38:35.202Z,8.00
2019-01-12T08:39:35.214Z,7.70
2019-01-12T08:40:35.212Z,7.90
2019-01-12T08:41:35.437Z,8.30
2019-01-12T08:42:35.224Z,8.20
2019-01-12T08:43:35.164Z,8.50
2019-01-12T08:44:35.139Z,8.60
2019-01-12T08:45:35.153Z,8.70
2019-01-12T08:46:35.284Z,9.30
2019-01-12T08:47:35.138Z,8.80
2019-01-12T08:48:35.131Z,8.10
2019-01-12T08:49:35.272Z,9.10
2019-01-12T08:50:35.102Z,9.00
2019-01-12T08:51:35.115Z,8.70
2019-01-12T08:52:35.254Z,9.30
2019-01-12T08:53:35.057Z,9.30
2019-01-12T08:54:35.050Z,9.60
2019-01-12T08:55:35.182Z,8.90
2019-01-12T08:56:38.352Z,9.20
2019-01-12T08:57:35.004Z,9.70
2019-01-12T08:58:34.986Z,9.10
2019-01-12T08:59:35.097Z,10.00
2019-01-12T09:00:34.997Z,9.30
2019-01-12T09:01:35.034Z,9.80
2019-01-12T09:02:35.053Z,9.40
2019-01-12T09:03:34.942Z,9.10
2019-01-12T09:04:43.235Z,9.30
2019-01-12T09:05:35.965Z,10.00
2019-01-12T09:06:34.901Z,10.30
2019-01-12T09:07:34.910Z,10.40
2019-01-12T09:08:34.981Z,10.10
2019-01-12T09:09:35.080Z,9.80
2019-01-12T09:10:34.882Z,10.70
2019-01-12T09:11:34.916Z,9.80
2019-01-12T09:12:35.105Z,10.50
2019-01-12T09:13:34.846Z,10.00
2019-01-12T09:14:34.892Z,10.10
2019-01-12T09:15:34.897Z,10.40
2019-01-12T09:16:34.823Z,10.00
2019-01-12T09:17:34.847Z,10.70
2019-01-12T09:18:34.799Z,11.00
2019-01-12T09:19:34.810Z,10.70
2019-01-12T09:20:34.759Z,10.10
2019-01-12T09:21:34.827Z,10.10
2019-01-12T09:22:34.843Z,10.10
2019-01-12T09:23:34.908Z,10.60
2019-01-12T09:24:34.746Z,10.40
2019-01-12T09:25:34.718Z,10.50
2019-01-12T09:26:34.775Z,10.30
2019-01-12T09:27:34.698Z,10.50
2019-01-12T09:28:34.679Z,9.90
2019-01-12T09:29:34.655Z,9.80
2019-01-12T09:30:34.670Z,10.30
2019-01-12T09:31:34.807Z,10.60
2019-01-12T09:32:34.687Z,10.40
2019-01-12T09:33:34.646Z,9.70
2019-01-12T09:34:34.668Z,10.10
2019-01-12T09:35:34.615Z,9.90
2019-01-12T09:36:34.711Z,9.90
2019-01-12T09:37:34.631Z,10.20
2019-01-12T09:38:34.584Z,9.90
2019-01-12T09:39:34.550Z,9.70
2019-01-12T09:40:34.538Z,9.80
2019-01-12T09:41:34.556Z,9.80
2019-01-12T09:42:34.543Z,10.10
2019-01-12T09:43:34.649Z,9.10
2019-01-12T09:44:34.499Z,9.50
2019-01-12T09:45:34.528Z,9.60
2019-01-12T09:46:34.516Z,8.60
2019-01-12T09:47:34.561Z,8.60
2019-01-12T09:48:34.491Z,8.50
2019-01-12T09:49:34.459Z,8.50
2019-01-12T09:50:34.553Z,8.80
2019-01-12T09:51:34.509Z,8.50
2019-01-12T09:52:34.436Z,8.90
2019-01-12T09:53:34.431Z,8.30
2019-01-12T09:54:34.402Z,8.60
2019-01-12T09:55:34.391Z,7.90
2019-01-12T09:56:34.426Z,8.30
2019-01-12T09:57:34.628Z,7.80
2019-01-12T09:58:34.363Z,8.20
2019-01-12T09:59:34.414Z,7.60
2019-01-12T10:00:34.334Z,8.30
2019-01-12T10:01:34.322Z,8.10
2019-01-12T10:02:34.303Z,7.80
2019-01-12T10:03:34.297Z,7.70
2019-01-12T10:04:34.319Z,7.90
2019-01-12T10:05:34.361Z,7.60
2019-01-12T10:06:34.283Z,7.90
2019-01-12T10:07:34.283Z,7.80
2019-01-12T10:08:34.318Z,7.30
2019-01-12T10:09:34.227Z,7.30
2019-01-12T10:10:34.277Z,6.70
2019-01-12T10:11:34.232Z,6.80
2019-01-12T10:12:34.200Z,7.10
2019-01-12T10:13:34.190Z,7.40
2019-01-12T10:14:34.236Z,7.20
2019-01-12T10:15:34.208Z,7.30
2019-01-12T10:16:34.168Z,6.80
2019-01-12T10:17:34.191Z,6.80
2019-01-12T10:18:34.387Z,6.40
2019-01-12T10:19:34.179Z,7.30
2019-01-12T10:20:34.669Z,6.50
2019-01-12T10:21:34.129Z,6.50
2019-01-12T10:22:34.120Z,6.70
2019-01-12T10:23:34.096Z,6.60
2019-01-12T10:24:34.716Z,7.00
2019-01-12T10:25:34.088Z,6.80
2019-01-12T10:26:34.190Z,6.40
2019-01-12T10:27:34.095Z,6.80
2019-01-12T10:28:34.034Z,6.20
2019-01-12T10:29:34.082Z,6.10
2019-01-12T10:30:34.023Z,5.50
2019-01-12T10:31:34.118Z,6.00
2019-01-12T10:32:34.037Z,6.00
2019-01-12T10:33:34.090Z,6.20
2019-01-12T10:34:33.989Z,5.90
2019-01-12T10:35:33.965Z,6.10
2019-01-12T10:36:34.125Z,5.20
2019-01-12T10:37:33.980Z,5.90
2019-01-12T10:38:33.945Z,6.00
2019-01-12T10:39:33.906Z,5.80
2019-01-12T10:40:33.911Z,5.40
2019-01-12T10:41:33.967Z,5.50
2019-01-12T10:42:33.901Z,5.20
2019-01-12T10:43:33.877Z,5.60
2019-01-12T10:44:33.893Z,5.10
2019-01-12T10:45:33.847Z,5.40
2019-01-12T10:46:33.867Z,5.60
2019-01-12T10:47:33.851Z,5.50
2019-01-12T10:48:34.127Z,4.70
2019-01-12T10:49:34.120Z,5.50
2019-01-12T10:50:33.975Z,5.40
2019-01-12T10:51:33.804Z,5.50
2019-01-12T10:52:33.936Z,5.40
2019-01-12T10:53:33.842Z,5.10
2019-01-12T10:54:33.765Z,5.40
2019-01-12T10:55:33.754Z,5.20
2019-01-12T10:56:33.738Z,5.20
2019-01-12T10:57:33.724Z,5.40
2019-01-12T10:58:33.825Z,5.40
2019-01-12T10:59:33.724Z,5.80
2019-01-12T11:00:33.684Z,5.00
2019-01-12T11:01:33.737Z,5.00
2019-01-12T11:02:33.695Z,5.50
2019-01-12T11:03:33.733Z,5.60
2019-01-12T11:04:33.653Z,5.30
2019-01-12T11:05:33.647Z,5.40
2019-01-12T11:06:33.622Z,5.30
2019-01-12T11:07:33.607Z,5.10
2019-01-12T11:08:33.624Z,5.40
2019-01-12T11:09:33.584Z,5.60
2019-01-12T11:10:33.609Z,5.10
2019-01-12T11:11:33.568Z,5.80
2019-01-12T11:12:33.637Z,5.30
2019-01-12T11:13:33.628Z,5.40
2019-01-12T11:14:33.638Z,5.40
2019-01-12T11:15:33.563Z,5.50
2019-01-12T11:16:33.519Z,5.20
2019-01-12T11:17:33.650Z,5.30
2019-01-12T11:18:33.520Z,5.40
2019-01-12T11:19:33.606Z,5.50
2019-01-12T11:20:33.625Z,5.60
2019-01-12T11:21:33.466Z,5.60
2019-01-12T11:22:33.486Z,5.70
2019-01-12T11:23:33.514Z,5.50
2019-01-12T11:24:33.594Z,5.30
2019-01-12T11:25:33.442Z,5.80
2019-01-12T11:26:33.422Z,5.60
2019-01-12T11:27:33.396Z,5.50
2019-01-12T11:28:33.429Z,5.40
2019-01-12T11:29:33.472Z,5.20
2019-01-12T11:30:33.466Z,5.60
2019-01-12T11:31:33.364Z,5.70
2019-01-12T11:32:33.342Z,5.70
2019-01-12T11:33:33.446Z,5.60
2019-01-12T11:34:33.317Z,5.60
2019-01-12T11:35:33.336Z,5.60
2019-01-12T11:36:33.295Z,5.50
2019-01-12T11:37:33.286Z,5.70
2019-01-12T11:38:33.303Z,5.40
2019-01-12T11:39:33.275Z,5.90
2019-01-12T11:40:33.310Z,5.70
2019-01-12T11:41:33.256Z,6.00
2019-01-12T11:42:33.247Z,5.60
2019-01-12T11:43:33.224Z,6.00
2019-01-12T11:44:33.211Z,5.50
2019-01-12T11:45:33.321Z,6.10
2019-01-12T11:46:33.291Z,6.10
2019-01-12T11:47:33.252Z,6.50
2019-01-12T11:48:33.203Z,5.80
2019-01-12T11:49:33.160Z,5.50
2019-01-12T11:50:33.175Z,5.80
2019-01-12T11:51:33.232Z,5.70
2019-01-12T11:52:33.126Z,6.10
2019-01-12T11:53:33.231Z,6.30
2019-01-12T11:54:33.114Z,6.50
2019-01-12T11:55:33.124Z,6.60
2019-01-12T11:56:33.188Z,6.50
2019-01-12T11:57:33.097Z,6.60
2019-01-12T11:58:33.072Z,5.90
2019-01-12T11:59:33.071Z,6.10
2019-01-12T12:00:33.051Z,6.60
2019-01-12T12:01:33.148Z,6.50
2019-01-12T12:02:37.686Z,6.30
2019-01-12T12:03:33.014Z,5.90
2019-01-12T12:04:33.267Z,6.80
2019-01-12T12:05:33.029Z,6.80
2019-01-12T12:06:33.054Z,6.40
2019-01-12T12:07:33.008Z,6.30
2019-01-12T12:08:32.959Z,6.70
2019-01-12T12:09:33.039Z,7.20
2019-01-12T12:10:32.939Z,7.30
2019-01-12T12:11:32.932Z,7.50
2019-01-12T12:12:32.997Z,6.90
2019-01-12T12:13:32.934Z,6.60
2019-01-12T12:14:32.892Z,6.40
2019-01-12T12:15:32.913Z,6.20
2019-01-12T12:16:32.878Z,6.20
2019-01-12T12:17:32.867Z,6.60
2019-01-12T12:18:32.902Z,6.60
2019-01-12T12:19:32.842Z,6.50
2019-01-12T12:20:33.065Z,6.30
2019-01-12T12:21:32.860Z,6.60
2019-01-12T12:22:32.840Z,6.60
2019-01-12T12:23:32.856Z,6.20
2019-01-12T12:24:32.938Z,5.70
2019-01-12T12:25:32.837Z,6.20
2019-01-12T12:26:32.881Z,6.10
2019-01-12T12:27:32.765Z,6.20
2019-01-12T12:28:32.773Z,6.10
2019-01-12T12:29:32.748Z,5.50
2019-01-12T12:30:32.802Z,5.70
2019-01-12T12:31:32.730Z,5.60
2019-01-12T12:32:32.714Z,5.50
2019-01-12T12:33:32.745Z,5.70
2019-01-12T12:34:32.721Z,6.00
2019-01-12T12:35:37.700Z,5.80
2019-01-12T12:36:33.666Z,5.10
2019-01-12T12:37:32.749Z,5.50
2019-01-12T12:38:32.659Z,5.60
2019-01-12T12:39:32.691Z,5.40
2019-01-12T12:40:32.735Z,6.30
2019-01-12T12:41:32.616Z,6.30
2019-01-12T12:42:32.613Z,5.50
2019-01-12T12:43:32.649Z,5.30
2019-01-12T12:44:32.612Z,5.60
2019-01-12T12:45:32.563Z,5.30
2019-01-12T12:46:32.638Z,5.00
2019-01-12T12:47:32.560Z,5.00
2019-01-12T12:48:32.555Z,5.10
2019-01-12T12:49:32.542Z,4.70
2019-01-12T12:50:32.513Z,4.90
2019-01-12T12:51:32.541Z,5.00
2019-01-12T12:52:32.496Z,4.70
2019-01-12T12:53:32.541Z,4.80
2019-01-12T12:54:32.504Z,4.60
2019-01-12T12:55:32.498Z,4.60
2019-01-12T12:56:32.445Z,4.80
2019-01-12T12:57:32.933Z,4.90
2019-01-12T12:58:32.457Z,4.20
2019-01-12T12:59:32.514Z,4.60
2019-01-12T13:00:32.759Z,4.90
2019-01-12T13:01:32.415Z,4.90
2019-01-12T13:02:32.391Z,5.10
2019-01-12T13:03:32.381Z,5.00
2019-01-12T13:04:32.389Z,4.80
2019-01-12T13:05:32.394Z,4.70
2019-01-12T13:06:32.341Z,5.10
2019-01-12T13:07:32.409Z,5.00
2019-01-12T13:08:32.344Z,5.40
2019-01-12T13:09:32.315Z,5.30
2019-01-12T13:10:32.479Z,5.20
2019-01-12T13:11:32.321Z,5.10
2019-01-12T13:12:32.274Z,5.10
2019-01-12T13:13:32.290Z,4.70
2019-01-12T13:14:32.258Z,4.20
2019-01-12T13:15:32.282Z,4.90
2019-01-12T13:16:32.295Z,4.80
2019-01-12T13:17:32.262Z,4.60